sensor_id;sensor_type;location;lat;lon;timestamp;P1;durP1;ratioP1;P2;durP2;ratioP2
73850;SDS011;62190;51.548;5.688;2022-10-16T00:01:42;11.78;;;5.58;;
73850;SDS011;62190;51.548;5.688;2022-10-16T00:04:11;10.82;;;5.65;;
73850;SDS011;62190;51.548;5.688;2022-10-16T00:06:41;10.45;;;4.90;;
73850;SDS011;62190;51.548;5.688;2022-10-16T00:09:08;9.85;;;5.08;;
73850;SDS011;62190;51.548;5.688;2022-10-16T00:11:37;12.78;;;5.08;;
73850;SDS011;62190;51.548;5.688;2022-10-16T00:14:07;7.87;;;4.83;;
73850;SDS011;62190;51.548;5.688;2022-10-16T00:16:36;9.10;;;4.97;;
73850;SDS011;62190;51.548;5.688;2022-10-16T00:19:05;10.15;;;5.12;;
73850;SDS011;62190;51.548;5.688;2022-10-16T00:21:32;12.88;;;4.87;;
73850;SDS011;62190;51.548;5.688;2022-10-16T00:24:01;11.80;;;5.53;;
73850;SDS011;62190;51.548;5.688;2022-10-16T00:26:34;10.18;;;5.12;;
73850;SDS011;62190;51.548;5.688;2022-10-16T00:29:02;9.33;;;5.40;;
73850;SDS011;62190;51.548;5.688;2022-10-16T00:31:30;10.40;;;5.15;;
73850;SDS011;62190;51.548;5.688;2022-10-16T00:33:59;8.15;;;4.60;;
73850;SDS011;62190;51.548;5.688;2022-10-16T00:36:26;9.28;;;4.75;;
73850;SDS011;62190;51.548;5.688;2022-10-16T00:38:54;9.55;;;4.30;;
73850;SDS011;62190;51.548;5.688;2022-10-16T00:41:28;6.28;;;4.25;;
73850;SDS011;62190;51.548;5.688;2022-10-16T00:43:56;9.75;;;4.17;;
73850;SDS011;62190;51.548;5.688;2022-10-16T00:46:26;6.50;;;3.98;;
73850;SDS011;62190;51.548;5.688;2022-10-16T00:51:56;8.90;;;4.60;;
73850;SDS011;62190;51.548;5.688;2022-10-16T00:54:19;11.75;;;4.60;;
73850;SDS011;62190;51.548;5.688;2022-10-16T00:56:50;10.95;;;4.87;;
73850;SDS011;62190;51.548;5.688;2022-10-16T00:59:19;6.78;;;4.87;;
73850;SDS011;62190;51.548;5.688;2022-10-16T01:01:52;8.05;;;4.50;;
73850;SDS011;62190;51.548;5.688;2022-10-16T01:04:19;7.30;;;4.28;;
73850;SDS011;62190;51.548;5.688;2022-10-16T01:12:33;11.97;;;4.72;;
73850;SDS011;62190;51.548;5.688;2022-10-16T01:15:18;9.23;;;5.00;;
73850;SDS011;62190;51.548;5.688;2022-10-16T01:18:06;10.18;;;4.25;;
73850;SDS011;62190;51.548;5.688;2022-10-16T01:20:51;6.67;;;4.03;;
73850;SDS011;62190;51.548;5.688;2022-10-16T01:26:10;11.25;;;4.83;;
73850;SDS011;62190;51.548;5.688;2022-10-16T01:28:40;7.78;;;4.53;;
73850;SDS011;62190;51.548;5.688;2022-10-16T01:31:09;10.90;;;4.75;;
73850;SDS011;62190;51.548;5.688;2022-10-16T01:33:45;6.35;;;3.83;;
73850;SDS011;62190;51.548;5.688;2022-10-16T01:36:15;7.55;;;4.28;;
73850;SDS011;62190;51.548;5.688;2022-10-16T01:38:44;8.85;;;4.40;;
73850;SDS011;62190;51.548;5.688;2022-10-16T01:44:05;6.42;;;3.77;;
73850;SDS011;62190;51.548;5.688;2022-10-16T01:46:36;6.25;;;3.20;;
73850;SDS011;62190;51.548;5.688;2022-10-16T01:49:05;9.45;;;4.15;;
73850;SDS011;62190;51.548;5.688;2022-10-16T01:51:34;7.53;;;3.80;;
73850;SDS011;62190;51.548;5.688;2022-10-16T01:54:04;7.70;;;3.83;;
73850;SDS011;62190;51.548;5.688;2022-10-16T01:56:31;5.55;;;3.50;;
73850;SDS011;62190;51.548;5.688;2022-10-16T01:59:04;6.03;;;3.47;;
73850;SDS011;62190;51.548;5.688;2022-10-16T02:01:34;6.92;;;3.60;;
73850;SDS011;62190;51.548;5.688;2022-10-16T02:04:07;6.17;;;3.60;;
73850;SDS011;62190;51.548;5.688;2022-10-16T02:06:37;6.40;;;3.60;;
73850;SDS011;62190;51.548;5.688;2022-10-16T02:09:04;5.45;;;3.80;;
73850;SDS011;62190;51.548;5.688;2022-10-16T02:11:35;5.85;;;3.70;;
73850;SDS011;62190;51.548;5.688;2022-10-16T02:14:03;8.78;;;3.33;;
73850;SDS011;62190;51.548;5.688;2022-10-16T02:16:33;5.60;;;3.08;;
73850;SDS011;62190;51.548;5.688;2022-10-16T02:19:02;5.67;;;2.80;;
73850;SDS011;62190;51.548;5.688;2022-10-16T02:21:31;4.53;;;2.50;;
73850;SDS011;62190;51.548;5.688;2022-10-16T02:24:20;10.00;;;3.30;;
73850;SDS011;62190;51.548;5.688;2022-10-16T02:27:19;6.62;;;2.90;;
73850;SDS011;62190;51.548;5.688;2022-10-16T02:32:23;4.70;;;2.08;;
73850;SDS011;62190;51.548;5.688;2022-10-16T02:34:50;5.65;;;2.67;;
73850;SDS011;62190;51.548;5.688;2022-10-16T02:37:18;3.25;;;2.35;;
73850;SDS011;62190;51.548;5.688;2022-10-16T02:39:49;3.95;;;2.50;;
73850;SDS011;62190;51.548;5.688;2022-10-16T02:42:18;6.45;;;2.52;;
73850;SDS011;62190;51.548;5.688;2022-10-16T02:44:47;5.05;;;2.02;;
73850;SDS011;62190;51.548;5.688;2022-10-16T02:47:17;4.28;;;2.22;;
73850;SDS011;62190;51.548;5.688;2022-10-16T02:49:43;4.85;;;2.40;;
73850;SDS011;62190;51.548;5.688;2022-10-16T02:52:11;5.20;;;1.92;;
73850;SDS011;62190;51.548;5.688;2022-10-16T02:54:40;8.73;;;2.80;;
73850;SDS011;62190;51.548;5.688;2022-10-16T02:57:07;3.10;;;2.12;;
73850;SDS011;62190;51.548;5.688;2022-10-16T02:59:34;5.83;;;3.10;;
73850;SDS011;62190;51.548;5.688;2022-10-16T03:02:04;4.70;;;2.90;;
73850;SDS011;62190;51.548;5.688;2022-10-16T03:04:30;5.22;;;2.45;;
73850;SDS011;62190;51.548;5.688;2022-10-16T03:06:59;4.97;;;2.62;;
73850;SDS011;62190;51.548;5.688;2022-10-16T03:09:27;4.22;;;2.35;;
73850;SDS011;62190;51.548;5.688;2022-10-16T03:11:56;3.77;;;2.50;;
73850;SDS011;62190;51.548;5.688;2022-10-16T03:14:24;3.98;;;2.42;;
73850;SDS011;62190;51.548;5.688;2022-10-16T03:16:51;6.05;;;2.90;;
73850;SDS011;62190;51.548;5.688;2022-10-16T03:19:19;5.12;;;2.75;;
73850;SDS011;62190;51.548;5.688;2022-10-16T03:21:46;5.42;;;2.72;;
73850;SDS011;62190;51.548;5.688;2022-10-16T03:24:16;5.35;;;2.55;;
73850;SDS011;62190;51.548;5.688;2022-10-16T03:26:43;4.28;;;2.12;;
73850;SDS011;62190;51.548;5.688;2022-10-16T03:29:10;7.87;;;2.83;;
73850;SDS011;62190;51.548;5.688;2022-10-16T03:31:38;5.03;;;2.65;;
73850;SDS011;62190;51.548;5.688;2022-10-16T03:34:07;5.37;;;2.25;;
73850;SDS011;62190;51.548;5.688;2022-10-16T03:36:36;6.90;;;2.60;;
73850;SDS011;62190;51.548;5.688;2022-10-16T03:39:03;7.92;;;2.30;;
73850;SDS011;62190;51.548;5.688;2022-10-16T03:41:33;5.05;;;2.33;;
73850;SDS011;62190;51.548;5.688;2022-10-16T03:44:01;7.05;;;2.60;;
73850;SDS011;62190;51.548;5.688;2022-10-16T03:46:28;3.40;;;1.90;;
73850;SDS011;62190;51.548;5.688;2022-10-16T03:48:56;6.17;;;2.67;;
73850;SDS011;62190;51.548;5.688;2022-10-16T03:51:23;4.37;;;2.30;;
73850;SDS011;62190;51.548;5.688;2022-10-16T03:53:51;10.13;;;2.77;;
73850;SDS011;62190;51.548;5.688;2022-10-16T03:56:18;8.00;;;2.47;;
73850;SDS011;62190;51.548;5.688;2022-10-16T03:58:46;5.25;;;2.27;;
73850;SDS011;62190;51.548;5.688;2022-10-16T04:01:14;4.65;;;1.95;;
73850;SDS011;62190;51.548;5.688;2022-10-16T04:03:43;3.25;;;1.85;;
73850;SDS011;62190;51.548;5.688;2022-10-16T04:06:11;5.83;;;1.85;;
73850;SDS011;62190;51.548;5.688;2022-10-16T04:08:38;3.77;;;2.27;;
73850;SDS011;62190;51.548;5.688;2022-10-16T04:11:05;3.50;;;1.87;;
73850;SDS011;62190;51.548;5.688;2022-10-16T04:13:34;6.87;;;2.00;;
73850;SDS011;62190;51.548;5.688;2022-10-16T04:16:03;3.55;;;1.90;;
73850;SDS011;62190;51.548;5.688;2022-10-16T04:18:30;5.80;;;2.25;;
73850;SDS011;62190;51.548;5.688;2022-10-16T04:21:01;8.33;;;2.15;;
73850;SDS011;62190;51.548;5.688;2022-10-16T04:23:31;5.72;;;2.00;;
73850;SDS011;62190;51.548;5.688;2022-10-16T04:25:59;3.33;;;2.15;;
73850;SDS011;62190;51.548;5.688;2022-10-16T04:28:30;7.75;;;2.17;;
73850;SDS011;62190;51.548;5.688;2022-10-16T04:30:57;8.13;;;2.10;;
73850;SDS011;62190;51.548;5.688;2022-10-16T04:33:28;10.65;;;2.30;;
73850;SDS011;62190;51.548;5.688;2022-10-16T04:35:57;5.53;;;2.30;;
73850;SDS011;62190;51.548;5.688;2022-10-16T04:38:25;7.83;;;2.10;;
73850;SDS011;62190;51.548;5.688;2022-10-16T04:40:56;4.92;;;1.92;;
73850;SDS011;62190;51.548;5.688;2022-10-16T04:43:23;3.55;;;2.00;;
73850;SDS011;62190;51.548;5.688;2022-10-16T04:45:50;4.00;;;2.10;;
73850;SDS011;62190;51.548;5.688;2022-10-16T04:48:20;4.97;;;1.90;;
73850;SDS011;62190;51.548;5.688;2022-10-16T04:50:47;5.25;;;2.12;;
73850;SDS011;62190;51.548;5.688;2022-10-16T04:53:17;6.28;;;2.30;;
73850;SDS011;62190;51.548;5.688;2022-10-16T04:55:45;8.23;;;2.85;;
73850;SDS011;62190;51.548;5.688;2022-10-16T04:58:12;4.50;;;1.87;;
73850;SDS011;62190;51.548;5.688;2022-10-16T05:00:39;4.35;;;1.87;;
73850;SDS011;62190;51.548;5.688;2022-10-16T05:03:07;4.83;;;1.80;;
73850;SDS011;62190;51.548;5.688;2022-10-16T05:05:34;3.75;;;1.90;;
73850;SDS011;62190;51.548;5.688;2022-10-16T05:08:02;5.53;;;2.12;;
73850;SDS011;62190;51.548;5.688;2022-10-16T05:10:30;4.67;;;2.35;;
73850;SDS011;62190;51.548;5.688;2022-10-16T05:12:57;6.72;;;2.67;;
73850;SDS011;62190;51.548;5.688;2022-10-16T05:15:24;7.40;;;2.37;;
73850;SDS011;62190;51.548;5.688;2022-10-16T05:17:52;8.08;;;2.58;;
73850;SDS011;62190;51.548;5.688;2022-10-16T05:20:20;4.47;;;2.45;;
73850;SDS011;62190;51.548;5.688;2022-10-16T05:22:48;7.25;;;1.95;;
73850;SDS011;62190;51.548;5.688;2022-10-16T05:25:15;4.40;;;2.05;;
73850;SDS011;62190;51.548;5.688;2022-10-16T05:27:42;7.95;;;2.62;;
73850;SDS011;62190;51.548;5.688;2022-10-16T05:30:11;4.62;;;2.12;;
73850;SDS011;62190;51.548;5.688;2022-10-16T05:32:39;3.17;;;2.22;;
73850;SDS011;62190;51.548;5.688;2022-10-16T05:35:06;6.42;;;2.67;;
73850;SDS011;62190;51.548;5.688;2022-10-16T05:37:33;4.33;;;2.33;;
73850;SDS011;62190;51.548;5.688;2022-10-16T05:40:01;7.15;;;2.67;;
73850;SDS011;62190;51.548;5.688;2022-10-16T05:42:30;4.70;;;2.33;;
73850;SDS011;62190;51.548;5.688;2022-10-16T05:44:57;3.52;;;2.15;;
73850;SDS011;62190;51.548;5.688;2022-10-16T05:47:25;5.60;;;2.62;;
73850;SDS011;62190;51.548;5.688;2022-10-16T05:49:52;5.87;;;2.75;;
73850;SDS011;62190;51.548;5.688;2022-10-16T05:52:21;4.58;;;2.30;;
73850;SDS011;62190;51.548;5.688;2022-10-16T05:54:48;6.10;;;2.47;;
73850;SDS011;62190;51.548;5.688;2022-10-16T05:57:15;7.15;;;2.80;;
73850;SDS011;62190;51.548;5.688;2022-10-16T05:59:42;8.18;;;2.50;;
73850;SDS011;62190;51.548;5.688;2022-10-16T06:02:11;8.20;;;3.27;;
73850;SDS011;62190;51.548;5.688;2022-10-16T06:04:42;5.92;;;2.37;;
73850;SDS011;62190;51.548;5.688;2022-10-16T06:07:09;5.65;;;2.75;;
73850;SDS011;62190;51.548;5.688;2022-10-16T06:09:36;8.20;;;2.55;;
73850;SDS011;62190;51.548;5.688;2022-10-16T06:12:03;5.67;;;2.60;;
73850;SDS011;62190;51.548;5.688;2022-10-16T06:14:31;4.08;;;2.62;;
73850;SDS011;62190;51.548;5.688;2022-10-16T06:16:58;4.85;;;2.75;;
73850;SDS011;62190;51.548;5.688;2022-10-16T06:19:25;9.65;;;3.45;;
73850;SDS011;62190;51.548;5.688;2022-10-16T06:21:53;5.62;;;2.75;;
73850;SDS011;62190;51.548;5.688;2022-10-16T06:24:20;5.45;;;2.55;;
73850;SDS011;62190;51.548;5.688;2022-10-16T06:26:47;7.10;;;3.12;;
73850;SDS011;62190;51.548;5.688;2022-10-16T06:29:14;11.20;;;3.47;;
73850;SDS011;62190;51.548;5.688;2022-10-16T06:31:42;7.35;;;3.30;;
73850;SDS011;62190;51.548;5.688;2022-10-16T06:34:10;7.50;;;3.87;;
73850;SDS011;62190;51.548;5.688;2022-10-16T06:36:39;6.25;;;3.70;;
73850;SDS011;62190;51.548;5.688;2022-10-16T06:39:06;6.45;;;3.35;;
73850;SDS011;62190;51.548;5.688;2022-10-16T06:41:34;6.87;;;3.10;;
73850;SDS011;62190;51.548;5.688;2022-10-16T06:44:04;7.08;;;2.25;;
73850;SDS011;62190;51.548;5.688;2022-10-16T06:46:36;6.50;;;2.77;;
73850;SDS011;62190;51.548;5.688;2022-10-16T06:49:03;9.35;;;3.30;;
73850;SDS011;62190;51.548;5.688;2022-10-16T06:51:30;21.85;;;4.58;;
73850;SDS011;62190;51.548;5.688;2022-10-16T06:53:59;6.08;;;3.20;;
73850;SDS011;62190;51.548;5.688;2022-10-16T06:56:28;5.28;;;3.00;;
73850;SDS011;62190;51.548;5.688;2022-10-16T06:58:56;7.25;;;2.90;;
73850;SDS011;62190;51.548;5.688;2022-10-16T07:01:25;6.25;;;3.17;;
73850;SDS011;62190;51.548;5.688;2022-10-16T07:03:53;10.03;;;3.10;;
73850;SDS011;62190;51.548;5.688;2022-10-16T07:06:21;7.58;;;2.87;;
73850;SDS011;62190;51.548;5.688;2022-10-16T07:08:50;5.08;;;2.98;;
73850;SDS011;62190;51.548;5.688;2022-10-16T07:11:19;6.17;;;2.92;;
73850;SDS011;62190;51.548;5.688;2022-10-16T07:13:47;6.10;;;3.08;;
73850;SDS011;62190;51.548;5.688;2022-10-16T07:16:16;7.03;;;2.60;;
73850;SDS011;62190;51.548;5.688;2022-10-16T07:18:46;6.17;;;2.45;;
73850;SDS011;62190;51.548;5.688;2022-10-16T07:21:15;4.78;;;2.05;;
73850;SDS011;62190;51.548;5.688;2022-10-16T07:23:56;10.82;;;3.20;;
73850;SDS011;62190;51.548;5.688;2022-10-16T07:26:18;5.08;;;2.05;;
73850;SDS011;62190;51.548;5.688;2022-10-16T07:28:45;3.65;;;2.47;;
73850;SDS011;62190;51.548;5.688;2022-10-16T07:31:13;4.47;;;1.80;;
73850;SDS011;62190;51.548;5.688;2022-10-16T07:33:42;6.62;;;2.22;;
73850;SDS011;62190;51.548;5.688;2022-10-16T07:36:11;6.80;;;1.52;;
73850;SDS011;62190;51.548;5.688;2022-10-16T07:38:40;3.55;;;1.20;;
73850;SDS011;62190;51.548;5.688;2022-10-16T07:41:08;4.85;;;1.17;;
73850;SDS011;62190;51.548;5.688;2022-10-16T07:43:38;3.62;;;1.20;;
73850;SDS011;62190;51.548;5.688;2022-10-16T07:46:05;3.55;;;1.32;;
73850;SDS011;62190;51.548;5.688;2022-10-16T07:48:33;3.15;;;0.82;;
73850;SDS011;62190;51.548;5.688;2022-10-16T07:51:02;4.75;;;1.20;;
73850;SDS011;62190;51.548;5.688;2022-10-16T07:53:32;3.47;;;1.10;;
73850;SDS011;62190;51.548;5.688;2022-10-16T07:56:00;2.20;;;0.70;;
73850;SDS011;62190;51.548;5.688;2022-10-16T07:58:30;7.10;;;1.12;;
73850;SDS011;62190;51.548;5.688;2022-10-16T08:01:02;1.60;;;0.85;;
73850;SDS011;62190;51.548;5.688;2022-10-16T08:03:28;3.15;;;1.22;;
73850;SDS011;62190;51.548;5.688;2022-10-16T08:05:56;5.70;;;1.25;;
73850;SDS011;62190;51.548;5.688;2022-10-16T08:08:24;7.92;;;1.62;;
73850;SDS011;62190;51.548;5.688;2022-10-16T08:10:52;7.70;;;1.42;;
73850;SDS011;62190;51.548;5.688;2022-10-16T08:13:20;2.90;;;1.60;;
73850;SDS011;62190;51.548;5.688;2022-10-16T08:15:50;3.70;;;1.60;;
73850;SDS011;62190;51.548;5.688;2022-10-16T08:18:18;5.00;;;1.90;;
73850;SDS011;62190;51.548;5.688;2022-10-16T08:20:45;5.05;;;1.50;;
73850;SDS011;62190;51.548;5.688;2022-10-16T08:23:12;6.72;;;1.85;;
73850;SDS011;62190;51.548;5.688;2022-10-16T08:25:40;3.15;;;1.35;;
73850;SDS011;62190;51.548;5.688;2022-10-16T08:28:09;2.85;;;1.25;;
73850;SDS011;62190;51.548;5.688;2022-10-16T08:30:37;5.10;;;1.47;;
73850;SDS011;62190;51.548;5.688;2022-10-16T08:33:04;3.67;;;1.47;;
73850;SDS011;62190;51.548;5.688;2022-10-16T08:35:32;6.55;;;1.50;;
73850;SDS011;62190;51.548;5.688;2022-10-16T08:37:59;3.98;;;1.72;;
73850;SDS011;62190;51.548;5.688;2022-10-16T08:40:32;6.70;;;2.10;;
73850;SDS011;62190;51.548;5.688;2022-10-16T08:45:43;6.10;;;1.92;;
73850;SDS011;62190;51.548;5.688;2022-10-16T08:51:06;8.53;;;2.20;;
73850;SDS011;62190;51.548;5.688;2022-10-16T08:53:37;9.48;;;1.62;;
73850;SDS011;62190;51.548;5.688;2022-10-16T08:56:04;5.30;;;1.42;;
73850;SDS011;62190;51.548;5.688;2022-10-16T08:58:32;4.60;;;1.35;;
73850;SDS011;62190;51.548;5.688;2022-10-16T09:01:10;4.62;;;1.35;;
73850;SDS011;62190;51.548;5.688;2022-10-16T09:03:32;4.33;;;1.10;;
73850;SDS011;62190;51.548;5.688;2022-10-16T09:14:07;4.53;;;1.50;;
73850;SDS011;62190;51.548;5.688;2022-10-16T09:16:53;4.72;;;1.40;;
73850;SDS011;62190;51.548;5.688;2022-10-16T09:19:34;7.72;;;1.17;;
73850;SDS011;62190;51.548;5.688;2022-10-16T09:22:04;3.50;;;1.57;;
73850;SDS011;62190;51.548;5.688;2022-10-16T09:24:34;7.10;;;1.40;;
73850;SDS011;62190;51.548;5.688;2022-10-16T09:27:02;3.75;;;1.12;;
73850;SDS011;62190;51.548;5.688;2022-10-16T09:29:29;7.87;;;1.22;;
73850;SDS011;62190;51.548;5.688;2022-10-16T09:31:57;6.65;;;1.27;;
73850;SDS011;62190;51.548;5.688;2022-10-16T09:34:30;10.75;;;1.70;;
73850;SDS011;62190;51.548;5.688;2022-10-16T09:37:04;5.40;;;1.35;;
73850;SDS011;62190;51.548;5.688;2022-10-16T09:39:43;5.00;;;1.10;;
73850;SDS011;62190;51.548;5.688;2022-10-16T09:42:20;3.75;;;0.80;;
73850;SDS011;62190;51.548;5.688;2022-10-16T09:44:46;4.10;;;0.90;;
73850;SDS011;62190;51.548;5.688;2022-10-16T09:47:15;7.90;;;1.37;;
73850;SDS011;62190;51.548;5.688;2022-10-16T09:49:55;4.17;;;1.12;;
73850;SDS011;62190;51.548;5.688;2022-10-16T09:52:26;2.80;;;0.70;;
73850;SDS011;62190;51.548;5.688;2022-10-16T09:55:00;8.90;;;1.45;;
73850;SDS011;62190;51.548;5.688;2022-10-16T09:57:25;6.53;;;0.98;;
73850;SDS011;62190;51.548;5.688;2022-10-16T09:59:56;4.53;;;0.93;;
73850;SDS011;62190;51.548;5.688;2022-10-16T10:02:31;2.65;;;1.00;;
73850;SDS011;62190;51.548;5.688;2022-10-16T10:05:05;7.95;;;1.82;;
73850;SDS011;62190;51.548;5.688;2022-10-16T10:07:37;8.23;;;1.50;;
73850;SDS011;62190;51.548;5.688;2022-10-16T10:10:06;10.28;;;1.47;;
73850;SDS011;62190;51.548;5.688;2022-10-16T10:12:35;11.18;;;2.60;;
73850;SDS011;62190;51.548;5.688;2022-10-16T10:15:11;4.62;;;1.30;;
73850;SDS011;62190;51.548;5.688;2022-10-16T10:17:51;4.22;;;1.12;;
73850;SDS011;62190;51.548;5.688;2022-10-16T10:20:24;6.15;;;1.50;;
73850;SDS011;62190;51.548;5.688;2022-10-16T10:23:00;7.70;;;1.62;;
73850;SDS011;62190;51.548;5.688;2022-10-16T10:25:49;10.85;;;1.62;;
73850;SDS011;62190;51.548;5.688;2022-10-16T10:28:21;7.53;;;1.37;;
73850;SDS011;62190;51.548;5.688;2022-10-16T10:31:14;5.55;;;1.45;;
73850;SDS011;62190;51.548;5.688;2022-10-16T10:33:57;7.25;;;1.30;;
73850;SDS011;62190;51.548;5.688;2022-10-16T10:39:00;6.78;;;1.40;;
73850;SDS011;62190;51.548;5.688;2022-10-16T10:46:59;9.10;;;1.40;;
73850;SDS011;62190;51.548;5.688;2022-10-16T10:49:37;12.88;;;1.75;;
73850;SDS011;62190;51.548;5.688;2022-10-16T10:55:10;9.15;;;1.40;;
73850;SDS011;62190;51.548;5.688;2022-10-16T10:57:57;5.00;;;1.55;;
73850;SDS011;62190;51.548;5.688;2022-10-16T11:00:28;9.45;;;1.40;;
73850;SDS011;62190;51.548;5.688;2022-10-16T11:05:45;8.33;;;1.50;;
73850;SDS011;62190;51.548;5.688;2022-10-16T11:10:54;9.00;;;1.55;;
73850;SDS011;62190;51.548;5.688;2022-10-16T11:13:31;7.40;;;1.40;;
73850;SDS011;62190;51.548;5.688;2022-10-16T11:16:07;4.55;;;1.37;;
73850;SDS011;62190;51.548;5.688;2022-10-16T11:18:51;8.63;;;1.15;;
73850;SDS011;62190;51.548;5.688;2022-10-16T11:21:20;7.83;;;1.60;;
73850;SDS011;62190;51.548;5.688;2022-10-16T11:23:50;4.67;;;1.17;;
73850;SDS011;62190;51.548;5.688;2022-10-16T11:26:28;12.73;;;1.85;;
73850;SDS011;62190;51.548;5.688;2022-10-16T11:28:57;6.15;;;1.40;;
73850;SDS011;62190;51.548;5.688;2022-10-16T11:31:32;7.08;;;1.92;;
73850;SDS011;62190;51.548;5.688;2022-10-16T11:36:58;5.12;;;1.47;;
73850;SDS011;62190;51.548;5.688;2022-10-16T11:39:27;5.17;;;0.80;;
73850;SDS011;62190;51.548;5.688;2022-10-16T11:42:03;3.95;;;1.50;;
73850;SDS011;62190;51.548;5.688;2022-10-16T11:44:45;5.83;;;1.47;;
73850;SDS011;62190;51.548;5.688;2022-10-16T11:50:19;7.65;;;1.40;;
73850;SDS011;62190;51.548;5.688;2022-10-16T11:52:40;8.05;;;1.47;;
73850;SDS011;62190;51.548;5.688;2022-10-16T11:55:14;11.05;;;1.20;;
73850;SDS011;62190;51.548;5.688;2022-10-16T11:57:45;7.00;;;1.37;;
73850;SDS011;62190;51.548;5.688;2022-10-16T12:00:34;8.60;;;1.70;;
73850;SDS011;62190;51.548;5.688;2022-10-16T12:03:03;4.85;;;1.02;;
73850;SDS011;62190;51.548;5.688;2022-10-16T12:08:15;9.30;;;1.55;;
73850;SDS011;62190;51.548;5.688;2022-10-16T12:10:44;8.40;;;1.50;;
73850;SDS011;62190;51.548;5.688;2022-10-16T12:13:28;9.00;;;1.50;;
73850;SDS011;62190;51.548;5.688;2022-10-16T12:16:59;6.60;;;1.15;;
73850;SDS011;62190;51.548;5.688;2022-10-16T12:18:36;5.28;;;1.05;;
73850;SDS011;62190;51.548;5.688;2022-10-16T12:21:04;4.75;;;1.30;;
73850;SDS011;62190;51.548;5.688;2022-10-16T12:23:33;5.95;;;1.22;;
73850;SDS011;62190;51.548;5.688;2022-10-16T12:26:04;12.13;;;1.37;;
73850;SDS011;62190;51.548;5.688;2022-10-16T12:28:32;5.10;;;0.98;;
73850;SDS011;62190;51.548;5.688;2022-10-16T12:31:02;8.78;;;1.20;;
73850;SDS011;62190;51.548;5.688;2022-10-16T12:33:35;6.20;;;1.40;;
73850;SDS011;62190;51.548;5.688;2022-10-16T12:36:05;8.45;;;1.27;;
73850;SDS011;62190;51.548;5.688;2022-10-16T12:38:47;6.53;;;1.20;;
73850;SDS011;62190;51.548;5.688;2022-10-16T12:43:56;5.17;;;1.00;;
73850;SDS011;62190;51.548;5.688;2022-10-16T12:46:33;6.42;;;1.50;;
73850;SDS011;62190;51.548;5.688;2022-10-16T12:54:25;8.25;;;1.17;;
73850;SDS011;62190;51.548;5.688;2022-10-16T12:59:49;5.87;;;0.90;;
73850;SDS011;62190;51.548;5.688;2022-10-16T13:07:54;5.15;;;1.05;;
73850;SDS011;62190;51.548;5.688;2022-10-16T13:10:42;4.30;;;0.70;;
73850;SDS011;62190;51.548;5.688;2022-10-16T13:13:41;4.47;;;1.10;;
73850;SDS011;62190;51.548;5.688;2022-10-16T13:19:24;5.95;;;1.12;;
73850;SDS011;62190;51.548;5.688;2022-10-16T13:22:01;6.17;;;1.02;;
73850;SDS011;62190;51.548;5.688;2022-10-16T13:24:42;5.60;;;1.05;;
73850;SDS011;62190;51.548;5.688;2022-10-16T13:27:26;8.23;;;1.10;;
73850;SDS011;62190;51.548;5.688;2022-10-16T13:30:09;8.30;;;1.37;;
73850;SDS011;62190;51.548;5.688;2022-10-16T13:32:38;2.83;;;0.70;;
73850;SDS011;62190;51.548;5.688;2022-10-16T13:35:18;5.35;;;1.12;;
73850;SDS011;62190;51.548;5.688;2022-10-16T13:37:47;4.55;;;0.78;;
73850;SDS011;62190;51.548;5.688;2022-10-16T13:40:23;4.85;;;0.90;;
73850;SDS011;62190;51.548;5.688;2022-10-16T13:42:52;3.50;;;0.65;;
73850;SDS011;62190;51.548;5.688;2022-10-16T13:45:21;5.08;;;0.82;;
73850;SDS011;62190;51.548;5.688;2022-10-16T13:48:01;6.40;;;0.98;;
73850;SDS011;62190;51.548;5.688;2022-10-16T13:50:29;3.95;;;1.22;;
73850;SDS011;62190;51.548;5.688;2022-10-16T13:53:04;4.90;;;0.90;;
73850;SDS011;62190;51.548;5.688;2022-10-16T13:55:35;4.10;;;0.85;;
73850;SDS011;62190;51.548;5.688;2022-10-16T13:58:14;3.95;;;0.80;;
73850;SDS011;62190;51.548;5.688;2022-10-16T14:00:39;5.40;;;0.90;;
73850;SDS011;62190;51.548;5.688;2022-10-16T14:03:12;4.45;;;0.90;;
73850;SDS011;62190;51.548;5.688;2022-10-16T14:05:44;3.27;;;0.60;;
73850;SDS011;62190;51.548;5.688;2022-10-16T14:08:15;4.67;;;0.80;;
73850;SDS011;62190;51.548;5.688;2022-10-16T14:10:46;5.60;;;1.00;;
73850;SDS011;62190;51.548;5.688;2022-10-16T14:13:18;4.33;;;1.10;;
73850;SDS011;62190;51.548;5.688;2022-10-16T14:15:48;5.67;;;1.32;;
73850;SDS011;62190;51.548;5.688;2022-10-16T14:18:18;4.55;;;0.90;;
73850;SDS011;62190;51.548;5.688;2022-10-16T14:20:46;2.70;;;0.80;;
73850;SDS011;62190;51.548;5.688;2022-10-16T14:26:06;4.15;;;0.68;;
73850;SDS011;62190;51.548;5.688;2022-10-16T14:28:42;1.87;;;0.55;;
73850;SDS011;62190;51.548;5.688;2022-10-16T14:33:49;3.50;;;0.93;;
73850;SDS011;62190;51.548;5.688;2022-10-16T14:36:18;4.62;;;0.70;;
73850;SDS011;62190;51.548;5.688;2022-10-16T14:38:57;7.78;;;1.20;;
73850;SDS011;62190;51.548;5.688;2022-10-16T14:41:27;5.58;;;0.80;;
73850;SDS011;62190;51.548;5.688;2022-10-16T14:44:09;4.75;;;1.17;;
73850;SDS011;62190;51.548;5.688;2022-10-16T14:46:35;4.30;;;0.80;;
73850;SDS011;62190;51.548;5.688;2022-10-16T14:51:45;3.85;;;1.15;;
73850;SDS011;62190;51.548;5.688;2022-10-16T14:54:13;4.08;;;1.00;;
73850;SDS011;62190;51.548;5.688;2022-10-16T14:56:46;3.47;;;0.78;;
73850;SDS011;62190;51.548;5.688;2022-10-16T14:59:34;2.47;;;0.68;;
73850;SDS011;62190;51.548;5.688;2022-10-16T15:02:22;3.40;;;0.98;;
73850;SDS011;62190;51.548;5.688;2022-10-16T15:04:53;4.40;;;0.90;;
73850;SDS011;62190;51.548;5.688;2022-10-16T15:07:21;3.58;;;1.10;;
73850;SDS011;62190;51.548;5.688;2022-10-16T15:09:50;6.20;;;0.88;;
73850;SDS011;62190;51.548;5.688;2022-10-16T15:12:18;6.25;;;1.10;;
73850;SDS011;62190;51.548;5.688;2022-10-16T15:14:46;4.40;;;0.93;;
73850;SDS011;62190;51.548;5.688;2022-10-16T15:17:13;2.45;;;0.90;;
73850;SDS011;62190;51.548;5.688;2022-10-16T15:19:40;7.90;;;1.20;;
73850;SDS011;62190;51.548;5.688;2022-10-16T15:22:09;4.60;;;0.80;;
73850;SDS011;62190;51.548;5.688;2022-10-16T15:24:38;2.90;;;0.90;;
73850;SDS011;62190;51.548;5.688;2022-10-16T15:27:05;6.25;;;1.50;;
73850;SDS011;62190;51.548;5.688;2022-10-16T15:29:33;4.12;;;1.07;;
73850;SDS011;62190;51.548;5.688;2022-10-16T15:32:00;6.15;;;1.40;;
73850;SDS011;62190;51.548;5.688;2022-10-16T15:34:27;3.17;;;1.02;;
73850;SDS011;62190;51.548;5.688;2022-10-16T15:36:54;3.15;;;1.37;;
73850;SDS011;62190;51.548;5.688;2022-10-16T15:39:23;6.90;;;1.60;;
73850;SDS011;62190;51.548;5.688;2022-10-16T15:41:50;4.53;;;1.10;;
73850;SDS011;62190;51.548;5.688;2022-10-16T15:44:19;5.47;;;2.08;;
73850;SDS011;62190;51.548;5.688;2022-10-16T15:46:48;8.15;;;1.05;;
73850;SDS011;62190;51.548;5.688;2022-10-16T15:49:15;4.45;;;1.20;;
73850;SDS011;62190;51.548;5.688;2022-10-16T15:51:43;5.58;;;1.17;;
73850;SDS011;62190;51.548;5.688;2022-10-16T15:54:11;4.65;;;1.00;;
73850;SDS011;62190;51.548;5.688;2022-10-16T15:56:38;7.20;;;0.93;;
73850;SDS011;62190;51.548;5.688;2022-10-16T15:59:06;7.50;;;1.80;;
73850;SDS011;62190;51.548;5.688;2022-10-16T16:01:33;2.95;;;1.00;;
73850;SDS011;62190;51.548;5.688;2022-10-16T16:04:02;7.20;;;2.80;;
73850;SDS011;62190;51.548;5.688;2022-10-16T16:06:31;4.67;;;1.70;;
73850;SDS011;62190;51.548;5.688;2022-10-16T16:08:58;4.47;;;2.05;;
73850;SDS011;62190;51.548;5.688;2022-10-16T16:11:25;5.50;;;1.30;;
73850;SDS011;62190;51.548;5.688;2022-10-16T16:13:53;4.30;;;1.00;;
73850;SDS011;62190;51.548;5.688;2022-10-16T16:16:20;4.40;;;1.40;;
73850;SDS011;62190;51.548;5.688;2022-10-16T16:18:48;6.47;;;1.57;;
73850;SDS011;62190;51.548;5.688;2022-10-16T16:21:16;5.62;;;1.12;;
73850;SDS011;62190;51.548;5.688;2022-10-16T16:23:46;5.55;;;1.70;;
73850;SDS011;62190;51.548;5.688;2022-10-16T16:26:14;5.33;;;1.27;;
73850;SDS011;62190;51.548;5.688;2022-10-16T16:28:43;9.08;;;2.33;;